Time;durP1;ratioP1;P1;durP2;ratioP2;P2;SDS_P1;SDS_P2;PMS_P1;PMS_P2;Temp;Humidity;BMP_temperature;BMP_pressure;BME280_temperature;BME280_humidity;BME280_pressure;Samples;Min_cycle;Max_cycle;Signal;HPM_P1;HPM_P2
2023/05/20 00:00:53;;;;;;;9.88;3.88;;;18.50;93.30;;;;;;6244471;23;20000;-75
2023/05/20 00:03:19;;;;;;;10.82;4.63;;;18.60;93.40;;;;;;6244383;23;20012;-74
2023/05/20 00:05:45;;;;;;;9.30;4.10;;;18.60;93.40;;;;;;6247750;23;20061;-74
2023/05/20 00:08:11;;;;;;;10.23;4.28;;;18.60;93.40;;;;;;6248091;23;20023;-75
2023/05/20 00:10:37;;;;;;;10.30;4.10;;;18.50;93.40;;;;;;6248061;23;20004;-74
2023/05/20 00:13:03;;;;;;;10.27;4.32;;;18.50;93.40;;;;;;6220576;23;20106;-74
2023/05/20 00:15:29;;;;;;;12.90;4.20;;;18.50;93.50;;;;;;6247895;23;20161;-74
2023/05/20 00:17:56;;;;;;;10.73;4.28;;;18.40;93.60;;;;;;6247920;23;20011;-75
2023/05/20 00:20:21;;;;;;;12.18;4.38;;;18.50;93.80;;;;;;6247918;23;19996;-74
2023/05/20 00:22:47;;;;;;;9.05;3.67;;;18.50;93.80;;;;;;6248205;23;20046;-75
2023/05/20 00:25:13;;;;;;;10.10;3.85;;;18.40;93.80;;;;;;6247970;23;20077;-75
2023/05/20 00:27:40;;;;;;;11.57;4.47;;;18.40;93.80;;;;;;6248493;23;19993;-75
2023/05/20 00:30:06;;;;;;;16.58;4.63;;;18.40;94.00;;;;;;6248041;23;20011;-75
2023/05/20 00:32:33;;;;;;;10.95;4.32;;;18.40;94.00;;;;;;6248024;23;20080;-74
2023/05/20 00:34:59;;;;;;;9.55;4.47;;;18.40;94.40;;;;;;6248130;23;20046;-76
2023/05/20 00:37:26;;;;;;;10.23;4.00;;;18.40;94.10;;;;;;6220947;23;20003;-74
2023/05/20 00:39:52;;;;;;;11.85;4.65;;;18.40;94.10;;;;;;6248068;23;20003;-75
2023/05/20 00:42:25;;;;;;;9.50;3.90;;;18.40;94.00;;;;;;6248415;23;20031;-74
2023/05/20 00:44:51;;;;;;;10.15;3.63;;;18.50;94.10;;;;;;6247736;23;20023;-75
2023/05/20 00:47:18;;;;;;;9.13;4.25;;;18.40;94.10;;;;;;6220583;23;20012;-74
2023/05/20 00:49:45;;;;;;;11.48;4.55;;;18.50;94.10;;;;;;6248075;23;20043;-75
2023/05/20 00:52:12;;;;;;;11.70;4.82;;;18.50;94.00;;;;;;6247701;23;20457;-75
2023/05/20 00:54:39;;;;;;;10.57;4.30;;;18.50;94.00;;;;;;6247545;23;20050;-74
2023/05/20 00:57:06;;;;;;;11.07;4.05;;;18.50;94.00;;;;;;6247632;23;20437;-75
2023/05/20 00:59:34;;;;;;;10.30;4.25;;;18.40;94.00;;;;;;6247312;23;20000;-75
2023/05/20 01:02:01;;;;;;;9.98;4.13;;;18.40;94.00;;;;;;6247879;23;20000;-75
2023/05/20 01:04:27;;;;;;;11.45;3.85;;;18.40;93.90;;;;;;6247540;23;20436;-76
2023/05/20 01:06:54;;;;;;;11.30;4.10;;;18.40;93.90;;;;;;6247534;23;20004;-76
2023/05/20 01:09:20;;;;;;;10.75;4.50;;;18.30;93.80;;;;;;6220400;23;20326;-74
2023/05/20 01:11:58;;;;;;;17.08;4.38;;;18.40;93.70;;;;;;6247464;23;20111;-74
2023/05/20 01:14:28;;;;;;;13.50;4.53;;;18.30;93.60;;;;;;6247472;23;20007;-74
2023/05/20 01:16:57;;;;;;;11.32;4.00;;;18.30;93.40;;;;;;6245713;23;20036;-75
2023/05/20 01:19:36;;;;;;;12.23;4.45;;;18.40;93.30;;;;;;6245567;23;20079;-73
2023/05/20 01:22:06;;;;;;;14.18;4.05;;;18.40;93.10;;;;;;6218641;23;20116;-74
2023/05/20 01:24:32;;;;;;;12.30;4.05;;;18.40;92.90;;;;;;6246068;23;19996;-74
2023/05/20 01:26:58;;;;;;;10.20;4.05;;;18.40;92.60;;;;;;6246037;23;20012;-74
2023/05/20 01:29:26;;;;;;;10.32;3.88;;;18.50;92.50;;;;;;6245480;23;20023;-74
2023/05/20 01:31:54;;;;;;;7.95;3.58;;;18.50;92.20;;;;;;6245794;23;20020;-74
2023/05/20 01:34:20;;;;;;;9.85;3.78;;;18.50;92.10;;;;;;6245513;23;19996;-74
2023/05/20 01:36:47;;;;;;;14.63;4.25;;;18.50;91.90;;;;;;6245964;23;20054;-73
2023/05/20 01:39:13;;;;;;;9.40;3.92;;;18.50;91.70;;;;;;6245653;23;20049;-74
2023/05/20 01:41:40;;;;;;;9.45;3.75;;;18.50;91.60;;;;;;6245150;23;20000;-72
2023/05/20 01:44:06;;;;;;;11.65;3.65;;;18.50;91.70;;;;;;6245333;23;20000;-75
2023/05/20 01:46:33;;;;;;;10.85;3.90;;;18.50;91.60;;;;;;6245821;23;20027;-74
2023/05/20 01:48:59;;;;;;;9.75;4.47;;;18.50;91.50;;;;;;6245268;23;20067;-74
2023/05/20 01:51:25;;;;;;;12.13;3.97;;;18.60;91.50;;;;;;6245116;23;20028;-75
2023/05/20 01:53:50;;;;;;;11.40;4.18;;;18.60;91.30;;;;;;6245683;23;20023;-75
2023/05/20 01:56:16;;;;;;;9.85;3.30;;;18.60;91.30;;;;;;6245153;23;20004;-73
2023/05/20 01:58:42;;;;;;;10.35;3.60;;;18.60;91.10;;;;;;6245430;23;20007;-74
2023/05/20 02:01:07;;;;;;;11.32;3.83;;;18.60;90.80;;;;;;6245517;23;20425;-74
2023/05/20 02:03:33;;;;;;;10.10;3.47;;;18.60;90.50;;;;;;6218306;23;20027;-72
2023/05/20 02:05:59;;;;;;;9.45;3.53;;;18.60;90.30;;;;;;6245397;23;20461;-73
2023/05/20 02:08:25;;;;;;;7.68;3.58;;;18.70;90.30;;;;;;6245034;23;20023;-73
2023/05/20 02:10:50;;;;;;;15.23;3.58;;;18.70;90.30;;;;;;6244742;23;20375;-73
2023/05/20 02:13:16;;;;;;;7.32;3.70;;;18.60;90.10;;;;;;6245300;23;20008;-75
2023/05/20 02:15:42;;;;;;;8.82;3.25;;;18.60;90.10;;;;;;6244955;23;20410;-74
2023/05/20 02:18:08;;;;;;;13.18;4.07;;;18.60;90.20;;;;;;6245012;23;20004;-74
2023/05/20 02:20:36;;;;;;;11.35;3.50;;;18.60;90.10;;;;;;6245514;23;19992;-74
2023/05/20 02:23:04;;;;;;;6.95;3.17;;;18.60;90.10;;;;;;6245561;23;20023;-74
2023/05/20 02:25:31;;;;;;;9.88;3.65;;;18.60;90.00;;;;;;6218971;23;20043;-73
2023/05/20 02:27:57;;;;;;;10.13;3.40;;;18.60;90.00;;;;;;6246448;23;20359;-73
2023/05/20 02:30:22;;;;;;;9.85;4.00;;;18.60;90.00;;;;;;6246484;23;20127;-73
2023/05/20 02:32:48;;;;;;;11.02;3.80;;;18.60;89.90;;;;;;6246648;23;20039;-73
2023/05/20 02:35:15;;;;;;;7.45;3.15;;;18.60;89.70;;;;;;6247054;23;20525;-75
2023/05/20 02:37:43;;;;;;;10.80;3.85;;;18.60;90.10;;;;;;6219937;23;20331;-74
2023/05/20 02:40:09;;;;;;;7.78;3.67;;;18.60;89.40;;;;;;6252922;23;20003;-74
2023/05/20 02:42:35;;;;;;;8.70;3.45;;;18.60;89.70;;;;;;6269141;23;20048;-74
2023/05/20 02:45:00;;;;;;;10.52;3.78;;;18.60;89.80;;;;;;6269995;23;20010;-75
2023/05/20 02:47:26;;;;;;;11.48;3.75;;;18.60;90.00;;;;;;6261017;23;20039;-75
2023/05/20 02:49:52;;;;;;;11.18;3.38;;;18.60;90.00;;;;;;6246612;23;20294;-74
2023/05/20 02:52:17;;;;;;;10.38;3.47;;;18.50;90.10;;;;;;6245889;23;20011;-73
2023/05/20 02:54:43;;;;;;;9.95;3.70;;;18.50;90.20;;;;;;6245387;23;19996;-73
2023/05/20 02:57:09;;;;;;;10.68;3.72;;;18.40;90.30;;;;;;6245260;23;20131;-73
2023/05/20 02:59:34;;;;;;;10.80;4.07;;;18.40;90.40;;;;;;6245083;23;20110;-74
2023/05/20 03:02:00;;;;;;;10.18;4.07;;;18.40;90.60;;;;;;6244413;23;20054;-73
2023/05/20 03:04:26;;;;;;;8.25;3.75;;;18.30;90.70;;;;;;6244555;23;20342;-75
2023/05/20 03:06:52;;;;;;;9.48;3.60;;;18.20;90.90;;;;;;6244754;23;20434;-74
2023/05/20 03:09:18;;;;;;;9.48;3.90;;;18.10;91.00;;;;;;6244898;23;20011;-73
2023/05/20 03:11:46;;;;;;;9.10;4.03;;;18.10;91.20;;;;;;6244687;23;20016;-76
2023/05/20 03:14:12;;;;;;;9.77;3.63;;;18.00;91.30;;;;;;6244583;23;20006;-74
2023/05/20 03:16:38;;;;;;;10.10;3.70;;;18.00;91.40;;;;;;6217670;23;20011;-73
2023/05/20 03:19:04;;;;;;;9.75;3.88;;;18.00;91.60;;;;;;6244641;23;20000;-74
2023/05/20 03:21:30;;;;;;;10.43;3.58;;;18.00;91.70;;;;;;6217709;23;20019;-74
2023/05/20 03:23:55;;;;;;;9.68;3.78;;;17.90;91.70;;;;;;6244627;23;20056;-74
2023/05/20 03:26:22;;;;;;;7.88;3.38;;;17.90;91.80;;;;;;6244450;23;20029;-74
2023/05/20 03:28:48;;;;;;;10.27;3.65;;;17.90;91.70;;;;;;6244405;23;20000;-73
2023/05/20 03:31:13;;;;;;;8.80;3.33;;;17.90;91.70;;;;;;6244105;23;20054;-73
2023/05/20 03:33:39;;;;;;;10.30;4.05;;;17.90;91.80;;;;;;6244234;23;20334;-74
2023/05/20 03:36:05;;;;;;;10.80;4.35;;;17.90;91.80;;;;;;6244613;23;20000;-74
2023/05/20 03:38:31;;;;;;;8.63;3.70;;;17.90;91.90;;;;;;6244305;23;20467;-73
2023/05/20 03:40:56;;;;;;;7.88;3.63;;;17.90;91.80;;;;;;6244718;23;20011;-74
2023/05/20 03:43:23;;;;;;;11.73;3.83;;;17.90;91.80;;;;;;6244531;23;20023;-74
2023/05/20 03:45:49;;;;;;;11.10;3.63;;;18.00;91.80;;;;;;6217496;23;20302;-74
2023/05/20 03:48:15;;;;;;;7.38;3.05;;;17.90;91.60;;;;;;6244663;23;20050;-73
2023/05/20 03:50:41;;;;;;;9.75;3.53;;;17.90;91.60;;;;;;6244527;23;20011;-73
2023/05/20 03:53:07;;;;;;;7.07;3.53;;;17.90;91.70;;;;;;6244579;23;20062;-74
2023/05/20 03:55:33;;;;;;;9.93;3.90;;;17.90;91.80;;;;;;6244415;23;20000;-74
2023/05/20 03:58:00;;;;;;;11.80;4.45;;;17.90;91.80;;;;;;6244607;23;20035;-74
2023/05/20 04:00:26;;;;;;;10.70;4.00;;;17.90;92.00;;;;;;6217447;23;20434;-73
2023/05/20 04:02:52;;;;;;;8.55;3.85;;;17.80;92.10;;;;;;6216897;23;20040;-74
2023/05/20 04:05:18;;;;;;;15.05;7.88;;;17.90;92.20;;;;;;6216903;23;20074;-73
2023/05/20 04:07:44;;;;;;;9.75;3.85;;;17.80;92.30;;;;;;6244180;23;19996;-74
2023/05/20 04:10:10;;;;;;;11.20;4.15;;;17.80;92.40;;;;;;6244458;23;20007;-75
2023/05/20 04:12:37;;;;;;;14.80;4.82;;;17.90;92.60;;;;;;6244445;23;20088;-74
2023/05/20 04:15:03;;;;;;;8.90;4.10;;;17.80;92.60;;;;;;6244248;23;20003;-74
2023/05/20 04:17:30;;;;;;;10.10;4.10;;;17.80;92.60;;;;;;6244161;23;20031;-74
2023/05/20 04:19:58;;;;;;;9.35;4.22;;;17.80;93.00;;;;;;6244354;23;20050;-74
2023/05/20 04:22:24;;;;;;;9.55;4.07;;;17.70;93.00;;;;;;6244069;23;20011;-74
2023/05/20 04:24:50;;;;;;;7.60;4.10;;;17.70;93.10;;;;;;6244372;23;20055;-73
2023/05/20 04:27:16;;;;;;;10.98;3.85;;;17.70;93.20;;;;;;6243935;23;20092;-73
2023/05/20 04:29:44;;;;;;;15.40;4.78;;;17.80;93.30;;;;;;6243920;23;20419;-74
2023/05/20 04:32:13;;;;;;;12.23;4.22;;;17.80;93.40;;;;;;6244181;23;20085;-73
2023/05/20 04:34:39;;;;;;;11.45;4.20;;;17.80;93.40;;;;;;6216927;23;20004;-73
2023/05/20 04:37:06;;;;;;;13.15;4.85;;;17.80;93.40;;;;;;6244160;23;20004;-74
2023/05/20 04:39:32;;;;;;;9.27;4.10;;;17.80;93.50;;;;;;6244078;23;20031;-74
2023/05/20 04:41:58;;;;;;;13.35;4.47;;;17.70;93.70;;;;;;6244254;23;20004;-74
2023/05/20 04:44:25;;;;;;;11.30;4.13;;;17.70;93.80;;;;;;6244412;23;20081;-74
2023/05/20 04:46:51;;;;;;;11.50;4.07;;;17.70;93.80;;;;;;6243697;23;20473;-73
2023/05/20 04:49:17;;;;;;;10.15;4.43;;;17.70;93.90;;;;;;6243891;23;20420;-73
2023/05/20 04:51:43;;;;;;;15.88;4.28;;;17.70;93.80;;;;;;6245045;23;20020;-74
2023/05/20 04:54:09;;;;;;;14.55;4.63;;;17.70;94.00;;;;;;6246168;23;20099;-73
2023/05/20 04:56:35;;;;;;;8.60;4.20;;;17.60;94.00;;;;;;6246285;23;20016;-74
2023/05/20 04:59:01;;;;;;;11.90;4.22;;;17.60;94.00;;;;;;6246006;23;19996;-73
2023/05/20 05:01:26;;;;;;;10.45;4.75;;;17.60;94.00;;;;;;6245850;23;20000;-74
2023/05/20 05:03:52;;;;;;;12.43;4.25;;;17.60;93.90;;;;;;6246272;23;20307;-75
2023/05/20 05:06:18;;;;;;;12.65;4.32;;;17.70;94.20;;;;;;6218956;23;20438;-75
2023/05/20 05:08:44;;;;;;;12.02;5.05;;;17.70;94.00;;;;;;6245925;23;20438;-73
2023/05/20 05:11:10;;;;;;;11.13;4.57;;;17.70;93.90;;;;;;6245397;23;20086;-74
2023/05/20 05:13:35;;;;;;;13.80;4.53;;;17.70;93.80;;;;;;6245642;23;20000;-74
2023/05/20 05:16:02;;;;;;;9.52;4.28;;;17.70;93.80;;;;;;6245485;23;20003;-75
2023/05/20 05:18:27;;;;;;;11.43;4.80;;;17.70;93.80;;;;;;6245132;23;20119;-75
2023/05/20 05:21:00;;;;;;;9.38;3.75;;;17.70;93.80;;;;;;6245292;23;20444;-74
2023/05/20 05:23:26;;;;;;;11.38;4.07;;;17.70;93.80;;;;;;6245194;23;20468;-74
2023/05/20 05:25:52;;;;;;;11.90;3.92;;;17.70;93.60;;;;;;6245582;23;20004;-73
2023/05/20 05:28:18;;;;;;;9.13;3.80;;;17.80;93.60;;;;;;6245375;23;20004;-73
2023/05/20 05:30:44;;;;;;;10.82;3.40;;;17.80;93.40;;;;;;6244576;23;20004;-74
2023/05/20 05:33:10;;;;;;;8.57;4.18;;;17.80;93.30;;;;;;6245282;23;20330;-74
2023/05/20 05:35:35;;;;;;;7.80;3.47;;;17.80;93.30;;;;;;6246534;23;20000;-74
2023/05/20 05:38:01;;;;;;;7.53;3.28;;;17.90;93.10;;;;;;6245294;23;20000;-73
2023/05/20 05:40:27;;;;;;;10.38;3.55;;;17.90;93.00;;;;;;6245132;23;20001;-73
2023/05/20 05:42:53;;;;;;;9.52;3.33;;;18.00;93.00;;;;;;6218482;23;20430;-74
2023/05/20 05:45:18;;;;;;;11.27;3.35;;;18.00;92.80;;;;;;6218594;23;20016;-74
2023/05/20 05:47:44;;;;;;;10.88;3.15;;;18.00;92.40;;;;;;6246350;23;19996;-74
2023/05/20 05:50:10;;;;;;;9.18;3.60;;;18.10;92.30;;;;;;6259170;23;20008;-74
2023/05/20 05:52:36;;;;;;;9.23;3.50;;;18.10;92.10;;;;;;6258678;23;20016;-73
2023/05/20 05:55:02;;;;;;;8.65;3.20;;;18.20;92.00;;;;;;6227022;23;20000;-73
2023/05/20 05:57:28;;;;;;;12.38;3.35;;;18.20;91.90;;;;;;6244953;23;20063;-74
2023/05/20 05:59:53;;;;;;;10.48;3.47;;;18.20;91.60;;;;;;6245069;23;20019;-75
2023/05/20 06:02:19;;;;;;;11.20;3.47;;;18.20;91.30;;;;;;6217586;23;20015;-74
2023/05/20 06:04:45;;;;;;;10.93;3.25;;;18.30;91.30;;;;;;6245142;23;20016;-74
2023/05/20 06:07:11;;;;;;;12.43;3.22;;;18.30;91.10;;;;;;6218574;23;20018;-74
2023/05/20 06:09:37;;;;;;;10.20;3.38;;;18.30;91.00;;;;;;6244580;23;20426;-74
2023/05/20 06:12:03;;;;;;;8.32;3.63;;;18.30;90.90;;;;;;6244734;23;20015;-75
2023/05/20 06:14:29;;;;;;;6.43;3.20;;;18.40;90.90;;;;;;6245120;23;20043;-74
2023/05/20 06:16:55;;;;;;;8.77;3.45;;;18.40;90.70;;;;;;6245405;23;20004;-74
2023/05/20 06:19:20;;;;;;;9.73;3.10;;;18.40;90.50;;;;;;6245079;23;20323;-75
2023/05/20 06:21:46;;;;;;;8.55;3.22;;;18.40;90.50;;;;;;6245201;23;20001;-74
2023/05/20 06:24:12;;;;;;;9.00;3.40;;;18.40;90.50;;;;;;6244986;23;20028;-73
2023/05/20 06:26:37;;;;;;;8.95;3.47;;;18.40;90.30;;;;;;6218082;23;20009;-73
2023/05/20 06:29:03;;;;;;;7.38;2.83;;;18.40;90.30;;;;;;6244989;23;20028;-74
2023/05/20 06:31:29;;;;;;;10.77;2.85;;;18.50;90.10;;;;;;6245363;23;20096;-73
2023/05/20 06:33:55;;;;;;;6.32;2.70;;;18.50;90.00;;;;;;6245243;23;20008;-74
2023/05/20 06:36:21;;;;;;;8.23;3.00;;;18.50;89.80;;;;;;6245409;23;20092;-73
2023/05/20 06:38:46;;;;;;;7.10;2.85;;;18.50;89.70;;;;;;6245265;23;20041;-73
2023/05/20 06:41:12;;;;;;;9.43;2.97;;;18.50;89.10;;;;;;6244406;23;20442;-74
2023/05/20 06:43:39;;;;;;;10.13;3.05;;;18.50;89.10;;;;;;6244710;23;20008;-75
2023/05/20 06:46:05;;;;;;;9.32;3.10;;;18.60;89.30;;;;;;6244973;23;20103;-74
2023/05/20 06:48:31;;;;;;;14.15;3.83;;;18.60;88.90;;;;;;6192799;23;20334;-75
2023/05/20 06:50:57;;;;;;;9.68;3.40;;;18.50;88.80;;;;;;6244773;23;20000;-73
2023/05/20 06:53:22;;;;;;;8.82;3.42;;;18.50;88.70;;;;;;6244366;23;20335;-73
2023/05/20 06:55:48;;;;;;;9.85;3.17;;;18.50;88.60;;;;;;6244461;23;20000;-74
2023/05/20 06:58:14;;;;;;;8.02;2.95;;;18.50;88.50;;;;;;6244764;23;20010;-73
2023/05/20 07:00:40;;;;;;;10.98;3.17;;;18.40;88.30;;;;;;6244338;23;19996;-74
2023/05/20 07:03:06;;;;;;;10.32;3.13;;;18.40;88.50;;;;;;6244027;23;20023;-73
2023/05/20 07:05:31;;;;;;;12.82;3.70;;;18.40;88.50;;;;;;6244240;23;20024;-74
2023/05/20 07:07:57;;;;;;;10.15;3.95;;;18.40;88.80;;;;;;6244381;23;20043;-74
2023/05/20 07:10:23;;;;;;;11.35;3.60;;;18.40;88.80;;;;;;6244020;23;20366;-74
2023/05/20 07:12:49;;;;;;;9.85;3.55;;;18.40;89.00;;;;;;6217184;23;20350;-75
2023/05/20 07:15:14;;;;;;;12.02;3.47;;;18.30;89.30;;;;;;6244273;23;20015;-75
2023/05/20 07:17:40;;;;;;;10.32;3.60;;;18.30;89.60;;;;;;6244440;23;20005;-75
2023/05/20 07:20:07;;;;;;;10.48;3.25;;;18.30;90.10;;;;;;6244438;23;20023;-75
2023/05/20 07:22:32;;;;;;;10.02;3.72;;;18.30;90.30;;;;;;6217631;23;20481;-73
2023/05/20 07:24:59;;;;;;;9.60;3.78;;;18.30;90.50;;;;;;6244298;23;20032;-71
2023/05/20 07:27:25;;;;;;;7.80;3.22;;;18.30;90.70;;;;;;6244336;23;20000;-69
2023/05/20 07:29:51;;;;;;;8.68;3.42;;;18.20;90.90;;;;;;6244502;23;20079;-71
2023/05/20 07:32:17;;;;;;;14.73;4.03;;;18.20;91.30;;;;;;6216895;23;20469;-70
2023/05/20 07:34:42;;;;;;;11.77;4.13;;;18.20;91.50;;;;;;6243725;23;20394;-71
2023/05/20 07:37:08;;;;;;;12.35;3.72;;;18.20;91.60;;;;;;6243917;23;20012;-71
2023/05/20 07:39:34;;;;;;;11.40;3.58;;;18.20;91.80;;;;;;6243748;23;20096;-69
2023/05/20 07:42:00;;;;;;;8.93;3.35;;;18.20;91.90;;;;;;6244277;23;20031;-71
2023/05/20 07:44:26;;;;;;;9.55;4.07;;;18.30;92.00;;;;;;6243872;23;20000;-71
2023/05/20 07:46:52;;;;;;;8.05;3.55;;;18.40;92.20;;;;;;6244580;23;20004;-70
2023/05/20 07:49:18;;;;;;;10.55;3.45;;;18.50;92.20;;;;;;6243739;23;20015;-70
2023/05/20 07:51:45;;;;;;;10.70;4.03;;;18.50;92.30;;;;;;6243437;23;20016;-72
2023/05/20 07:54:11;;;;;;;10.73;3.60;;;18.50;92.40;;;;;;6243896;23;20107;-70
2023/05/20 07:56:36;;;;;;;9.40;4.00;;;18.60;92.40;;;;;;6243658;23;20012;-70
2023/05/20 07:59:02;;;;;;;7.40;3.70;;;18.60;92.50;;;;;;6243629;23;20016;-70
2023/05/20 08:01:28;;;;;;;8.30;3.75;;;18.60;92.60;;;;;;6243803;23;20015;-71
2023/05/20 08:03:54;;;;;;;8.50;3.55;;;18.70;92.70;;;;;;6243350;23;20020;-70
2023/05/20 08:06:20;;;;;;;9.63;4.18;;;18.70;92.60;;;;;;6243341;23;20067;-71
2023/05/20 08:08:46;;;;;;;9.30;3.90;;;18.70;92.60;;;;;;6217039;23;20070;-70
2023/05/20 08:11:12;;;;;;;9.18;3.78;;;18.70;92.60;;;;;;6216660;23;20019;-73
2023/05/20 08:13:38;;;;;;;9.70;4.30;;;18.80;92.60;;;;;;6243381;23;20016;-71
2023/05/20 08:16:05;;;;;;;10.00;3.83;;;18.90;92.50;;;;;;6243878;23;19996;-71
2023/05/20 08:18:32;;;;;;;14.02;4.43;;;18.90;92.60;;;;;;6243905;23;20427;-69
2023/05/20 08:20:58;;;;;;;10.50;3.90;;;18.90;92.40;;;;;;6243823;23;20000;-70
2023/05/20 08:23:24;;;;;;;10.25;4.43;;;19.00;92.40;;;;;;6243785;23;20460;-72
2023/05/20 08:25:50;;;;;;;12.98;4.20;;;19.10;92.30;;;;;;6244987;23;20004;-72
2023/05/20 08:28:16;;;;;;;11.95;4.22;;;19.10;92.10;;;;;;6245665;23;20007;-70
2023/05/20 08:30:42;;;;;;;13.32;4.43;;;19.10;91.90;;;;;;6245631;23;20007;-72
2023/05/20 08:33:08;;;;;;;12.13;4.20;;;19.10;91.70;;;;;;6245519;23;20078;-71
2023/05/20 08:35:33;;;;;;;9.45;3.42;;;19.20;91.40;;;;;;6246006;23;20334;-71
2023/05/20 08:38:00;;;;;;;17.65;4.35;;;19.20;91.10;;;;;;6246003;23;20000;-71
2023/05/20 08:40:26;;;;;;;13.57;3.80;;;19.30;90.60;;;;;;6246312;23;20012;-72
2023/05/20 08:42:52;;;;;;;15.38;4.95;;;19.40;90.30;;;;;;6218759;23;20035;-71
2023/05/20 08:45:22;;;;;;;16.55;3.53;;;19.50;90.00;;;;;;6219198;23;20020;-70
2023/05/20 08:47:48;;;;;;;14.25;4.07;;;19.60;89.60;;;;;;6245977;23;20043;-71
2023/05/20 08:50:15;;;;;;;13.32;4.00;;;19.60;89.20;;;;;;6219163;23;20005;-70
2023/05/20 08:52:46;;;;;;;13.57;3.60;;;19.70;88.70;;;;;;6265618;23;20012;-71
2023/05/20 08:55:37;;;;;;;13.25;4.28;;;19.80;88.30;;;;;;6260001;23;20062;-71
2023/05/20 08:58:03;;;;;;;10.77;3.17;;;19.90;87.80;;;;;;6245383;23;20008;-71
2023/05/20 09:00:29;;;;;;;14.73;4.13;;;20.00;87.30;;;;;;6246434;23;20034;-71
2023/05/20 09:02:55;;;;;;;14.77;4.80;;;20.10;86.50;;;;;;6245698;23;20119;-71
2023/05/20 09:05:22;;;;;;;17.85;3.70;;;20.20;86.10;;;;;;6245563;23;20008;-70
2023/05/20 09:07:48;;;;;;;15.82;4.13;;;20.30;85.70;;;;;;6245542;23;20031;-72
2023/05/20 09:10:14;;;;;;;10.65;3.58;;;20.40;85.30;;;;;;6245731;23;20075;-71
2023/05/20 09:12:40;;;;;;;12.68;4.78;;;20.50;85.30;;;;;;6245321;23;20446;-71
2023/05/20 09:15:07;;;;;;;18.65;4.45;;;20.60;84.40;;;;;;6218895;23;20005;-69
2023/05/20 09:17:36;;;;;;;18.65;4.32;;;20.70;84.00;;;;;;6245664;23;20008;-71
2023/05/20 09:20:09;;;;;;;15.90;4.25;;;20.70;83.20;;;;;;6245762;23;20000;-71
2023/05/20 09:22:37;;;;;;;17.38;4.55;;;20.80;83.00;;;;;;6245990;23;20012;-72
2023/05/20 09:25:04;;;;;;;16.77;4.90;;;20.90;82.80;;;;;;6245931;23;20050;-72
2023/05/20 09:27:29;;;;;;;12.07;3.85;;;20.90;82.30;;;;;;6246027;23;20028;-71
2023/05/20 09:29:55;;;;;;;12.10;3.78;;;20.90;81.90;;;;;;6218015;23;20074;-71
2023/05/20 09:32:26;;;;;;;15.20;4.40;;;20.90;81.40;;;;;;6218384;23;20070;-73
2023/05/20 09:34:52;;;;;;;18.75;4.10;;;21.00;81.20;;;;;;6245864;23;20019;-70
2023/05/20 09:37:20;;;;;;;15.50;4.10;;;21.00;80.60;;;;;;6244962;23;20008;-73
2023/05/20 09:39:59;;;;;;;16.27;4.68;;;21.10;80.10;;;;;;6245569;23;20011;-71
2023/05/20 09:42:30;;;;;;;16.65;4.50;;;21.10;80.40;;;;;;6245773;23;20198;-72
2023/05/20 09:44:57;;;;;;;22.08;5.10;;;21.20;79.20;;;;;;6245156;23;20024;-71
2023/05/20 09:47:26;;;;;;;17.70;4.30;;;21.30;79.00;;;;;;6245650;23;20016;-71
2023/05/20 09:49:52;;;;;;;17.55;4.78;;;21.40;78.30;;;;;;6218525;23;20496;-71
2023/05/20 09:52:20;;;;;;;17.27;5.15;;;21.40;78.40;;;;;;6245218;23;20319;-72
2023/05/20 09:54:47;;;;;;;20.67;4.82;;;21.50;78.30;;;;;;6245673;23;20095;-71
2023/05/20 09:57:12;;;;;;;21.98;4.85;;;21.60;78.60;;;;;;6245513;23;20019;-72
2023/05/20 09:59:40;;;;;;;17.52;4.65;;;21.60;79.40;;;;;;6218419;23;20005;-71
2023/05/20 10:02:08;;;;;;;13.45;4.90;;;21.60;80.40;;;;;;6245410;23;20088;-71
2023/05/20 10:04:36;;;;;;;15.48;4.50;;;21.60;81.00;;;;;;6217964;23;20020;-72
2023/05/20 10:07:45;;;;;;;17.48;4.93;;;21.50;81.80;;;;;;6245259;23;20012;-71
2023/05/20 10:10:44;;;;;;;15.45;4.78;;;21.60;82.90;;;;;;6244931;23;20119;-71
2023/05/20 10:13:44;;;;;;;18.23;4.70;;;21.60;83.00;;;;;;6218689;23;20020;-72
2023/05/20 10:16:44;;;;;;;16.95;4.22;;;21.60;83.10;;;;;;6245141;23;20438;-72
2023/05/20 10:19:43;;;;;;;19.05;4.30;;;21.60;83.20;;;;;;6245365;23;20005;-71
2023/05/20 10:22:10;;;;;;;17.33;4.07;;;21.50;82.70;;;;;;6179170;23;20008;-72
2023/05/20 10:24:41;;;;;;;15.45;4.38;;;21.50;83.00;;;;;;6244809;23;20388;-70
2023/05/20 10:27:15;;;;;;;18.92;4.60;;;21.40;82.80;;;;;;6245458;23;20011;-73
2023/05/20 10:29:56;;;;;;;9.80;3.50;;;21.40;83.70;;;;;;6244796;23;20095;-69
2023/05/20 10:32:30;;;;;;;12.93;4.28;;;21.30;83.60;;;;;;6244193;23;20024;-71
2023/05/20 10:35:04;;;;;;;14.52;3.75;;;21.20;82.90;;;;;;6217682;23;20438;-71
2023/05/20 10:37:40;;;;;;;11.38;3.40;;;21.20;83.00;;;;;;6218121;23;20038;-71
2023/05/20 10:40:09;;;;;;;11.10;3.40;;;21.20;82.90;;;;;;6244823;23;20035;-71
2023/05/20 10:42:35;;;;;;;12.70;3.53;;;21.30;83.00;;;;;;6244721;23;20012;-71
2023/05/20 10:45:02;;;;;;;9.63;3.90;;;21.30;83.10;;;;;;6244507;23;20467;-71
2023/05/20 10:47:27;;;;;;;16.08;4.75;;;21.30;83.10;;;;;;6244673;23;19996;-72
2023/05/20 10:49:53;;;;;;;14.23;4.40;;;21.30;83.40;;;;;;6244361;23;20008;-70
2023/05/20 10:52:19;;;;;;;15.25;4.53;;;21.30;83.60;;;;;;6244396;23;20461;-71
2023/05/20 10:54:56;;;;;;;13.60;3.33;;;21.20;83.40;;;;;;6217795;23;20082;-72
2023/05/20 10:57:23;;;;;;;17.70;3.50;;;21.20;83.50;;;;;;6244320;23;20005;-70
2023/05/20 10:59:50;;;;;;;11.30;3.15;;;21.10;83.70;;;;;;6244899;23;20079;-72
2023/05/20 11:02:16;;;;;;;13.82;3.83;;;21.10;83.60;;;;;;6217557;23;20410;-71
2023/05/20 11:04:43;;;;;;;7.22;3.08;;;21.00;83.50;;;;;;6217497;23;20016;-70
2023/05/20 11:07:08;;;;;;;15.65;3.72;;;21.00;84.00;;;;;;6244794;23;20075;-71
2023/05/20 11:09:35;;;;;;;14.82;4.13;;;21.00;83.90;;;;;;6245223;23;20034;-71
2023/05/20 11:12:00;;;;;;;16.35;4.18;;;21.00;84.20;;;;;;6217814;23;20022;-71
2023/05/20 11:14:29;;;;;;;13.40;4.03;;;21.00;84.00;;;;;;6244904;23;20071;-71
2023/05/20 11:16:56;;;;;;;14.90;3.85;;;21.00;84.00;;;;;;6244661;23;20004;-70
2023/05/20 11:19:22;;;;;;;14.98;3.85;;;21.00;83.80;;;;;;6245319;23;19996;-71
2023/05/20 11:21:48;;;;;;;9.98;4.05;;;21.00;83.80;;;;;;6244615;23;20066;-72
2023/05/20 11:24:20;;;;;;;11.13;4.03;;;21.10;83.80;;;;;;6244861;23;20000;-71
2023/05/20 11:26:46;;;;;;;11.77;3.87;;;21.10;83.60;;;;;;6216890;23;20015;-71
2023/05/20 11:29:12;;;;;;;11.05;3.53;;;21.20;83.60;;;;;;6244524;23;20000;-71
2023/05/20 11:31:38;;;;;;;16.73;5.18;;;21.30;82.80;;;;;;6244881;23;20012;-71
2023/05/20 11:34:04;;;;;;;16.00;4.82;;;21.40;82.70;;;;;;6244956;23;20138;-71
2023/05/20 11:36:30;;;;;;;13.43;5.07;;;21.60;82.50;;;;;;6244876;23;20129;-71
2023/05/20 11:38:59;;;;;;;15.63;4.78;;;21.60;81.50;;;;;;6217697;23;20351;-71
2023/05/20 11:41:26;;;;;;;11.95;3.88;;;21.70;81.40;;;;;;6245616;23;20039;-71
2023/05/20 11:43:59;;;;;;;22.13;4.82;;;21.80;80.40;;;;;;6218324;23;20407;-71
2023/05/20 11:46:26;;;;;;;15.52;4.03;;;21.90;80.40;;;;;;6245891;23;20004;-70
2023/05/20 11:48:55;;;;;;;13.43;4.00;;;21.90;79.30;;;;;;6244686;23;20210;-71
2023/05/20 11:51:28;;;;;;;17.67;3.55;;;21.90;78.90;;;;;;6223065;23;20050;-71
2023/05/20 11:54:02;;;;;;;14.95;4.45;;;22.00;77.90;;;;;;6269713;23;19996;-76
2023/05/20 11:56:29;;;;;;;12.88;4.03;;;22.10;77.80;;;;;;6259788;23;20030;-72
2023/05/20 11:58:57;;;;;;;15.88;4.05;;;22.10;76.50;;;;;;6219172;23;20343;-71
2023/05/20 12:01:23;;;;;;;14.02;4.50;;;22.20;76.00;;;;;;6245553;23;20103;-69
2023/05/20 12:03:49;;;;;;;19.13;3.97;;;22.20;76.20;;;;;;6242477;23;20051;-70
2023/05/20 12:06:16;;;;;;;15.57;4.28;;;22.30;75.80;;;;;;6217497;23;20095;-70
2023/05/20 12:08:42;;;;;;;16.42;5.20;;;22.30;75.90;;;;;;6244250;23;20011;-70
2023/05/20 12:11:08;;;;;;;37.35;20.38;;;22.40;75.90;;;;;;6244406;23;20075;-71
2023/05/20 12:13:33;;;;;;;20.65;6.05;;;22.40;76.10;;;;;;6244218;23;20012;-71
2023/05/20 12:15:59;;;;;;;15.07;4.80;;;22.40;76.00;;;;;;6244115;23;20453;-70
2023/05/20 12:18:25;;;;;;;16.05;4.68;;;22.40;76.20;;;;;;6243877;23;20083;-70
2023/05/20 12:20:50;;;;;;;15.18;4.25;;;22.40;76.10;;;;;;6244139;23;20372;-71
2023/05/20 12:23:16;;;;;;;15.68;3.92;;;22.40;75.50;;;;;;6244151;23;20028;-71
2023/05/20 12:25:46;;;;;;;22.50;4.82;;;22.40;75.30;;;;;;6216931;23;20110;-71
2023/05/20 12:28:11;;;;;;;14.60;4.68;;;22.40;75.50;;;;;;6243828;23;20488;-70
2023/05/20 12:30:37;;;;;;;19.70;4.05;;;22.30;75.40;;;;;;6216550;23;20012;-71
2023/05/20 12:33:03;;;;;;;19.98;4.82;;;22.30;75.70;;;;;;6243059;23;20004;-70
2023/05/20 12:35:39;;;;;;;16.92;4.95;;;22.30;75.30;;;;;;6243846;23;20341;-69
2023/05/20 12:38:06;;;;;;;18.33;4.63;;;22.30;75.50;;;;;;6243984;23;20000;-70
2023/05/20 12:40:32;;;;;;;13.20;4.88;;;22.20;75.40;;;;;;6244340;23;20016;-70